Time,TemperatureF,DewpointF,PressureIn,WindDirection,WindDirectionDegrees,WindSpeedMPH,WindSpeedGustMPH,Humidity,HourlyPrecipIn,Conditions,Clouds,dailyrainin,SoftwareType,DateUTC
2013-03-11 00:10:00,46.9,41.0,30.22,West,262,8.0,9.0,80,0.00,,,0.00,weatherlink.com 1.10,2013-03-11 07:10:00,
2013-03-11 00:25:00,47.6,42.0,30.21,WSW,253,10.0,10.0,80,0.00,,,0.00,weatherlink.com 1.10,2013-03-11 07:25:00,
2013-03-11 00:40:00,48.2,40.0,30.21,West,273,7.0,9.0,74,0.00,,,0.00,weatherlink.com 1.10,2013-03-11 07:40:00,
2013-03-11 00:55:00,49.1,40.0,30.21,WSW,253,6.0,8.0,70,0.00,,,0.00,weatherlink.com 1.10,2013-03-11 07:55:00,
2013-03-11 01:10:00,51.3,33.0,30.21,West,278,1.0,4.0,49,0.00,,,0.00,weatherlink.com 1.10,2013-03-11 08:10:00,
2013-03-11 01:25:00,50.2,38.0,30.21,WSW,256,6.0,6.0,63,0.00,,,0.00,weatherlink.com 1.10,2013-03-11 08:25:00,
2013-03-11 01:40:00,49.1,39.0,30.21,West,259,7.0,9.0,68,0.00,,,0.00,weatherlink.com 1.10,2013-03-11 08:40:00,
2013-03-11 01:55:00,47.8,41.0,30.21,WSW,248,8.0,9.0,77,0.00,,,0.00,weatherlink.com 1.10,2013-03-11 08:55:00,
2013-03-11 02:10:00,47.5,40.0,30.21,WSW,255,9.0,9.0,75,0.00,,,0.00,weatherlink.com 1.10,2013-03-11 09:10:00,
2013-03-11 02:25:00,49.0,39.0,30.21,WSW,240,8.0,10.0,68,0.00,,,0.00,weatherlink.com 1.10,2013-03-11 09:25:00,
2013-03-11 02:40:00,49.3,38.0,30.21,WSW,257,10.0,10.0,66,0.00,,,0.00,weatherlink.com 1.10,2013-03-11 09:40:00,
2013-03-11 02:55:00,49.9,38.0,30.21,West,275,5.0,8.0,64,0.00,,,0.00,weatherlink.com 1.10,2013-03-11 09:55:00,
2013-03-11 03:10:00,50.1,37.0,30.20,East,84,1.0,6.0,61,0.00,,,0.00,weatherlink.com 1.10,2013-03-11 10:10:00,
2013-03-11 03:25:00,50.5,37.0,30.20,NW,309,1.0,3.0,60,0.00,,,0.00,weatherlink.com 1.10,2013-03-11 10:25:00,
2013-03-11 03:41:00,51.2,31.0,30.19,NW,321,0.0,2.0,47,0.00,,,0.00,weatherlink.com 1.10,2013-03-11 10:41:00,
2013-03-11 03:56:00,49.8,37.0,30.19,WSW,253,0.0,1.0,62,0.00,,,0.00,weatherlink.com 1.10,2013-03-11 10:56:00,
2013-03-11 04:11:00,50.1,36.0,30.19,SE,133,0.0,3.0,58,0.00,,,0.00,weatherlink.com 1.10,2013-03-11 11:11:00,
2013-03-11 04:26:00,48.8,39.0,30.19,ENE,77,6.0,6.0,70,0.00,,,0.00,weatherlink.com 1.10,2013-03-11 11:26:00,
2013-03-11 04:41:00,49.2,39.0,30.19,ENE,68,7.0,7.0,68,0.00,,,0.00,weatherlink.com 1.10,2013-03-11 11:41:00,
2013-03-11 04:56:00,49.2,39.0,30.19,ENE,77,9.0,9.0,67,0.00,,,0.00,weatherlink.com 1.10,2013-03-11 11:56:00,
2013-03-11 05:11:00,49.9,38.0,30.19,ENE,68,4.0,8.0,63,0.00,,,0.00,weatherlink.com 1.10,2013-03-11 12:11:00,
2013-03-11 05:26:00,49.5,39.0,30.19,ESE,113,5.0,6.0,68,0.00,,,0.00,weatherlink.com 1.10,2013-03-11 12:26:00,
2013-03-11 06:26:00,48.8,42.0,30.19,ENE,70,7.0,9.0,78,0.00,,,0.00,weatherlink.com 1.10,2013-03-11 13:26:00,
2013-03-11 06:56:00,48.8,42.0,30.19,East,79,7.0,9.0,76,0.00,,,0.00,weatherlink.com 1.10,2013-03-11 13:56:00,
2013-03-11 07:26:00,48.2,42.0,30.20,ENE,58,9.0,11.0,78,0.00,,,0.00,weatherlink.com 1.10,2013-03-11 14:26:00,
2013-03-11 07:41:00,47.8,42.0,30.20,East,95,9.0,11.0,81,0.00,,,0.00,weatherlink.com 1.10,2013-03-11 14:41:00,
2013-03-11 07:56:00,48.7,41.0,30.20,ENE,59,10.0,10.0,74,0.00,,,0.00,weatherlink.com 1.10,2013-03-11 14:56:00,
2013-03-11 08:11:00,49.0,42.0,30.20,ENE,61,9.0,9.0,78,0.00,,,0.00,weatherlink.com 1.10,2013-03-11 15:11:00,
2013-03-11 08:26:00,49.3,44.0,30.20,ENE,58,10.0,10.0,81,0.00,,,0.00,weatherlink.com 1.10,2013-03-11 15:26:00,
2013-03-11 08:41:00,49.6,44.0,30.20,NE,53,11.0,11.0,81,0.00,,,0.00,weatherlink.com 1.10,2013-03-11 15:41:00,
2013-03-11 08:56:00,49.6,44.0,30.20,ENE,61,12.0,12.0,81,0.00,,,0.00,weatherlink.com 1.10,2013-03-11 15:56:00,
2013-03-11 09:11:00,49.8,44.0,30.20,NE,46,8.0,10.0,80,0.00,,,0.00,weatherlink.com 1.10,2013-03-11 16:11:00,
2013-03-11 09:26:00,50.5,43.0,30.21,NE,48,9.0,10.0,76,0.00,,,0.00,weatherlink.com 1.10,2013-03-11 16:26:00,
2013-03-11 10:11:00,54.3,41.0,30.21,NE,44,3.0,6.0,61,0.00,,,0.00,weatherlink.com 1.10,2013-03-11 17:11:00,
2013-03-11 10:26:00,55.8,41.0,30.21,NE,43,2.0,6.0,59,0.00,,,0.00,weatherlink.com 1.10,2013-03-11 17:26:00,
2013-03-11 10:41:00,56.0,44.0,30.21,NE,50,2.0,5.0,65,0.00,,,0.00,weatherlink.com 1.10,2013-03-11 17:41:00,
2013-03-11 10:56:00,56.7,45.0,30.21,NE,43,4.0,5.0,65,0.00,,,0.00,weatherlink.com 1.10,2013-03-11 17:56:00,
2013-03-11 11:12:00,55.5,43.0,30.20,NNE,22,7.0,8.0,64,0.00,,,0.00,weatherlink.com 1.10,2013-03-11 18:12:00,
2013-03-11 11:27:00,55.2,44.0,30.20,NE,51,7.0,8.0,67,0.00,,,0.00,weatherlink.com 1.10,2013-03-11 18:27:00,
2013-03-11 11:42:00,56.0,44.0,30.20,NE,41,5.0,8.0,64,0.00,,,0.00,weatherlink.com 1.10,2013-03-11 18:42:00,
2013-03-11 11:57:00,56.7,43.0,30.20,NE,44,11.0,11.0,61,0.00,,,0.00,weatherlink.com 1.10,2013-03-11 18:57:00,
2013-03-11 12:12:00,57.2,44.0,30.19,NNE,27,10.0,11.0,61,0.00,,,0.00,weatherlink.com 1.10,2013-03-11 19:12:00,
2013-03-11 12:27:00,57.7,43.0,30.19,NE,51,9.0,11.0,59,0.00,,,0.00,weatherlink.com 1.10,2013-03-11 19:27:00,
2013-03-11 12:42:00,58.9,44.0,30.18,NE,37,8.0,10.0,58,0.00,,,0.00,weatherlink.com 1.10,2013-03-11 19:42:00,
2013-03-11 12:57:00,60.0,42.0,30.18,NE,42,5.0,8.0,51,0.00,,,0.00,weatherlink.com 1.10,2013-03-11 19:57:00,
2013-03-11 13:12:00,61.2,41.0,30.18,NNE,27,4.0,8.0,47,0.00,,,0.00,weatherlink.com 1.10,2013-03-11 20:12:00,
2013-03-11 13:27:00,63.6,44.0,30.17,West,264,1.0,4.0,49,0.00,,,0.00,weatherlink.com 1.10,2013-03-11 20:27:00,
2013-03-11 13:42:00,62.1,46.0,30.17,WSW,238,9.0,9.0,57,0.00,,,0.00,weatherlink.com 1.10,2013-03-11 20:42:00,
2013-03-11 13:57:00,60.3,44.0,30.16,SW,222,8.0,10.0,56,0.00,,,0.00,weatherlink.com 1.10,2013-03-11 20:57:00,
2013-03-11 14:12:00,61.3,47.0,30.16,SW,225,12.0,14.0,60,0.00,,,0.00,weatherlink.com 1.10,2013-03-11 21:12:00,
2013-03-11 14:27:00,61.0,43.0,30.15,WSW,238,13.0,16.0,51,0.00,,,0.00,weatherlink.com 1.10,2013-03-11 21:27:00,
2013-03-11 14:42:00,61.1,42.0,30.14,WSW,256,15.0,17.0,49,0.00,,,0.00,weatherlink.com 1.10,2013-03-11 21:42:00,
2013-03-11 14:57:00,60.8,43.0,30.14,WSW,253,13.0,17.0,52,0.00,,,0.00,weatherlink.com 1.10,2013-03-11 21:57:00,
2013-03-11 15:12:00,60.5,42.0,30.13,WSW,255,11.0,17.0,50,0.00,,,0.00,weatherlink.com 1.10,2013-03-11 22:12:00,
2013-03-11 15:27:00,60.5,40.0,30.13,WSW,249,15.0,19.0,47,0.00,,,0.00,weatherlink.com 1.10,2013-03-11 22:27:00,
2013-03-11 15:42:00,59.4,44.0,30.13,SW,231,14.0,18.0,57,0.00,,,0.00,weatherlink.com 1.10,2013-03-11 22:42:00,
2013-03-11 15:57:00,58.8,45.0,30.12,WSW,249,14.0,16.0,60,0.00,,,0.00,weatherlink.com 1.10,2013-03-11 22:57:00,
2013-03-11 16:12:00,57.8,47.0,30.12,SW,236,14.0,17.0,68,0.00,,,0.00,weatherlink.com 1.10,2013-03-11 23:12:00,
2013-03-11 16:27:00,55.7,48.0,30.11,SW,228,16.0,18.0,74,0.00,,,0.00,weatherlink.com 1.10,2013-03-11 23:27:00,
2013-03-11 16:42:00,55.1,47.0,30.11,WSW,238,19.0,21.0,75,0.00,,,0.00,weatherlink.com 1.10,2013-03-11 23:42:00,
2013-03-11 16:57:00,54.6,48.0,30.10,WSW,246,17.0,18.0,77,0.00,,,0.00,weatherlink.com 1.10,2013-03-11 23:57:00,
2013-03-11 17:12:00,54.4,48.0,30.09,WSW,240,16.0,18.0,79,0.00,,,0.00,weatherlink.com 1.10,2013-03-12 00:12:00,
2013-03-11 17:27:00,53.4,48.0,30.09,WSW,245,18.0,19.0,82,0.00,,,0.00,weatherlink.com 1.10,2013-03-12 00:27:00,
2013-03-11 17:42:00,51.4,47.0,30.09,WSW,238,16.0,19.0,85,0.00,,,0.00,weatherlink.com 1.10,2013-03-12 00:42:00,
2013-03-11 17:58:00,50.8,48.0,30.08,SW,236,16.0,16.0,90,0.00,,,0.00,weatherlink.com 1.10,2013-03-12 00:58:00,
2013-03-11 18:13:00,50.3,49.0,30.09,SW,236,15.0,16.0,94,0.00,,,0.00,weatherlink.com 1.10,2013-03-12 01:13:00,
2013-03-11 18:28:00,48.6,48.0,30.08,WSW,238,12.0,15.0,96,0.00,,,0.00,weatherlink.com 1.10,2013-03-12 01:28:00,
2013-03-11 18:43:00,47.9,47.0,30.08,WSW,240,14.0,14.0,97,0.00,,,0.00,weatherlink.com 1.10,2013-03-12 01:43:00,
2013-03-11 18:58:00,47.3,47.0,30.08,WSW,245,13.0,13.0,98,0.00,,,0.00,weatherlink.com 1.10,2013-03-12 01:58:00,
2013-03-11 19:13:00,47.0,47.0,30.07,WSW,243,11.0,13.0,98,0.00,,,0.00,weatherlink.com 1.10,2013-03-12 02:13:00,
2013-03-11 19:28:00,46.8,47.0,30.07,WSW,252,10.0,11.0,99,0.00,,,0.00,weatherlink.com 1.10,2013-03-12 02:28:00,
2013-03-11 19:43:00,47.3,47.0,30.07,WSW,257,11.0,13.0,99,0.00,,,0.00,weatherlink.com 1.10,2013-03-12 02:43:00,
2013-03-11 19:58:00,47.9,47.0,30.08,WSW,250,12.0,13.0,98,0.00,,,0.00,weatherlink.com 1.10,2013-03-12 02:58:00,
2013-03-11 20:13:00,48.7,47.0,30.08,WSW,250,11.0,12.0,92,0.00,,,0.00,weatherlink.com 1.10,2013-03-12 03:13:00,
2013-03-11 20:28:00,49.0,46.0,30.08,WSW,255,12.0,13.0,90,0.00,,,0.00,weatherlink.com 1.10,2013-03-12 03:28:00,
2013-03-11 20:43:00,49.3,46.0,30.08,WSW,248,11.0,13.0,89,0.00,,,0.00,weatherlink.com 1.10,2013-03-12 03:43:00,
2013-03-11 20:58:00,49.4,47.0,30.08,WSW,254,8.0,10.0,90,0.00,,,0.00,weatherlink.com 1.10,2013-03-12 03:58:00,
2013-03-11 21:13:00,49.1,47.0,30.08,WSW,245,10.0,10.0,92,0.00,,,0.00,weatherlink.com 1.10,2013-03-12 04:13:00,
2013-03-11 21:28:00,47.6,47.0,30.09,WSW,249,10.0,11.0,97,0.00,,,0.00,weatherlink.com 1.10,2013-03-12 04:28:00,
2013-03-11 21:43:00,47.4,47.0,30.09,WSW,245,10.0,10.0,98,0.00,,,0.00,weatherlink.com 1.10,2013-03-12 04:43:00,
2013-03-11 21:58:00,47.4,47.0,30.09,WSW,240,10.0,11.0,98,0.00,,,0.00,weatherlink.com 1.10,2013-03-12 04:58:00,
2013-03-11 22:13:00,47.3,47.0,30.09,WSW,255,11.0,13.0,98,0.00,,,0.00,weatherlink.com 1.10,2013-03-12 05:13:00,
2013-03-11 22:28:00,47.6,47.0,30.09,WSW,249,12.0,13.0,98,0.00,,,0.00,weatherlink.com 1.10,2013-03-12 05:28:00,
2013-03-11 22:43:00,48.3,47.0,30.08,WSW,240,15.0,15.0,96,0.00,,,0.00,weatherlink.com 1.10,2013-03-12 05:43:00,
2013-03-11 22:58:00,47.0,46.0,30.09,WSW,248,13.0,14.0,97,0.00,,,0.00,weatherlink.com 1.10,2013-03-12 05:58:00,
2013-03-11 23:13:00,47.0,47.0,30.09,WSW,249,11.0,11.0,98,0.00,,,0.00,weatherlink.com 1.10,2013-03-12 06:13:00,
2013-03-11 23:28:00,47.3,47.0,30.09,WSW,253,11.0,11.0,98,0.00,,,0.00,weatherlink.com 1.10,2013-03-12 06:28:00,
2013-03-11 23:43:00,46.2,46.0,30.09,WSW,255,8.0,11.0,98,0.00,,,0.00,weatherlink.com 1.10,2013-03-12 06:43:00,
2013-03-11 23:58:00,45.8,45.0,30.09,WSW,248,7.0,8.0,98,0.00,,,0.00,weatherlink.com 1.10,2013-03-12 06:58:00,